createdAt,value
2023-11-12T00:00:50.176Z,1.50
2023-11-12T00:03:18.177Z,1.60
2023-11-12T00:05:46.511Z,1.60
2023-11-12T00:08:14.478Z,1.70
2023-11-12T00:10:45.799Z,1.70
2023-11-12T00:13:13.967Z,1.80
2023-11-12T00:15:42.032Z,1.80
2023-11-12T00:18:10.039Z,1.80
2023-11-12T00:20:37.731Z,1.90
2023-11-12T00:23:05.612Z,2.00
2023-11-12T00:25:33.448Z,2.10
2023-11-12T00:28:01.236Z,2.10
2023-11-12T00:30:29.381Z,2.20
2023-11-12T00:32:57.755Z,2.20
2023-11-12T00:35:25.699Z,2.30
2023-11-12T00:37:54.628Z,2.30
2023-11-12T00:40:22.753Z,2.40
2023-11-12T00:42:50.634Z,2.40
2023-11-12T00:45:19.258Z,2.40
2023-11-12T00:47:47.953Z,2.40
2023-11-12T00:50:17.472Z,2.50
2023-11-12T00:52:45.967Z,2.50
2023-11-12T00:55:13.583Z,2.60
2023-11-12T00:57:41.250Z,2.60
2023-11-12T01:00:10.115Z,2.60
2023-11-12T01:02:38.059Z,2.70
2023-11-12T01:05:06.722Z,2.70
2023-11-12T01:07:37.335Z,2.70
2023-11-12T01:10:05.878Z,2.60
2023-11-12T01:12:33.723Z,2.60
2023-11-12T01:15:01.466Z,2.60
2023-11-12T01:17:30.276Z,2.70
2023-11-12T01:19:58.214Z,2.80
2023-11-12T01:22:26.445Z,2.80
2023-11-12T01:24:54.339Z,2.90
2023-11-12T01:27:22.749Z,2.90
2023-11-12T01:29:50.605Z,3.00
2023-11-12T01:32:18.980Z,3.00
2023-11-12T01:34:46.749Z,3.10
2023-11-12T01:37:14.827Z,3.10
2023-11-12T01:39:42.698Z,3.10
2023-11-12T01:42:13.118Z,3.00
2023-11-12T01:44:41.018Z,3.00
2023-11-12T01:47:10.950Z,3.00
2023-11-12T01:49:40.697Z,2.90
2023-11-12T01:52:12.536Z,2.90
2023-11-12T01:54:41.184Z,2.90
2023-11-12T01:57:09.723Z,2.90
2023-11-12T01:59:37.717Z,2.90
2023-11-12T02:02:06.537Z,2.80
2023-11-12T02:04:34.495Z,2.80
2023-11-12T02:07:02.954Z,2.80
2023-11-12T02:09:30.937Z,2.80
2023-11-12T02:11:58.827Z,2.70
2023-11-12T02:14:27.279Z,2.70
2023-11-12T02:16:56.650Z,2.60
2023-11-12T02:19:29.784Z,2.60
2023-11-12T02:21:59.090Z,2.60
2023-11-12T02:24:27.079Z,2.60
2023-11-12T02:26:55.316Z,2.60
2023-11-12T02:29:23.322Z,2.60
2023-11-12T02:31:51.244Z,2.50
2023-11-12T02:34:19.559Z,2.50
2023-11-12T02:36:47.700Z,2.50
2023-11-12T02:39:16.796Z,2.50
2023-11-12T02:41:45.725Z,2.60
2023-11-12T02:44:14.591Z,2.60
2023-11-12T02:46:43.246Z,2.70
2023-11-12T02:49:45.257Z,2.70
2023-11-12T02:52:13.214Z,2.70
2023-11-12T02:54:41.300Z,2.70
2023-11-12T02:57:09.774Z,2.80
2023-11-12T02:59:37.548Z,2.80
2023-11-12T03:06:57.790Z,2.90
2023-11-12T03:09:26.612Z,3.00
2023-11-12T03:11:55.149Z,3.00
2023-11-12T03:14:23.097Z,3.10
2023-11-12T03:16:50.922Z,3.00
2023-11-12T03:19:19.190Z,3.00
2023-11-12T03:21:54.216Z,3.10
2023-11-12T03:24:23.218Z,3.10
2023-11-12T03:26:56.709Z,3.10
2023-11-12T03:29:24.594Z,3.10
2023-11-12T03:31:55.000Z,3.20
2023-11-12T03:34:25.867Z,3.20
2023-11-12T03:36:53.849Z,3.30
2023-11-12T03:39:21.961Z,3.30
2023-11-12T03:41:49.853Z,3.30
2023-11-12T03:44:17.744Z,3.30
2023-11-12T03:46:45.622Z,3.30
2023-11-12T03:49:13.505Z,3.30
2023-11-12T03:51:41.267Z,3.30
2023-11-12T03:54:11.454Z,3.30
2023-11-12T03:56:39.797Z,3.30
2023-11-12T03:59:08.325Z,3.30
2023-11-12T04:01:36.407Z,3.30
2023-11-12T04:04:04.449Z,3.30
2023-11-12T04:06:32.956Z,3.30
2023-11-12T04:09:00.893Z,3.30
2023-11-12T04:11:28.613Z,3.30
2023-11-12T04:13:56.556Z,3.30
2023-11-12T04:16:24.392Z,3.30
2023-11-12T04:18:54.670Z,3.30
2023-11-12T04:21:23.369Z,3.30
2023-11-12T04:23:51.227Z,3.30
2023-11-12T04:26:19.132Z,3.30
2023-11-12T04:28:46.846Z,3.40
2023-11-12T04:31:15.481Z,3.40
2023-11-12T04:33:44.417Z,3.40
2023-11-12T04:36:14.080Z,3.40
2023-11-12T04:38:42.416Z,3.40
2023-11-12T04:41:12.997Z,3.40
2023-11-12T04:43:43.731Z,3.40
2023-11-12T04:46:12.546Z,3.40
2023-11-12T04:48:40.855Z,3.40
2023-11-12T04:51:09.398Z,3.40
2023-11-12T04:53:38.913Z,3.40
2023-11-12T04:56:11.229Z,3.40
2023-11-12T04:58:40.152Z,3.40
2023-11-12T05:01:07.934Z,3.40
2023-11-12T05:03:35.725Z,3.40
2023-11-12T05:06:05.138Z,3.30
2023-11-12T05:08:33.039Z,3.40
2023-11-12T05:11:00.884Z,3.30
2023-11-12T05:13:28.799Z,3.40
2023-11-12T05:15:57.979Z,3.30
2023-11-12T05:18:25.873Z,3.40
2023-11-12T05:20:53.540Z,3.40
2023-11-12T05:23:21.352Z,3.40
2023-11-12T05:25:49.182Z,3.40
2023-11-12T05:28:16.971Z,3.50
2023-11-12T05:30:44.824Z,3.50
2023-11-12T05:33:12.685Z,3.50
2023-11-12T05:35:40.415Z,3.60
2023-11-12T05:38:08.671Z,3.60
2023-11-12T05:40:36.526Z,3.70
2023-11-12T05:43:04.331Z,3.70
2023-11-12T05:45:32.371Z,3.80
2023-11-12T05:48:00.179Z,3.80
2023-11-12T05:50:27.867Z,3.80
2023-11-12T05:52:55.692Z,3.80
2023-11-12T05:55:23.445Z,3.80
2023-11-12T05:57:52.086Z,3.90
2023-11-12T06:00:20.789Z,3.90
2023-11-12T06:02:48.705Z,3.90
2023-11-12T06:05:17.128Z,3.90
2023-11-12T06:07:45.870Z,3.90
2023-11-12T06:10:14.551Z,3.90
2023-11-12T06:12:42.233Z,3.90
2023-11-12T06:15:11.854Z,4.00
2023-11-12T06:17:40.853Z,4.00
2023-11-12T06:20:09.131Z,4.10
2023-11-12T06:22:39.381Z,4.10
2023-11-12T06:25:12.758Z,4.20
2023-11-12T06:27:41.066Z,4.20
2023-11-12T06:30:10.342Z,4.30
2023-11-12T06:32:39.532Z,4.30
2023-11-12T06:35:07.580Z,4.30
2023-11-12T06:37:35.614Z,4.30
2023-11-12T06:40:04.338Z,4.30
2023-11-12T06:42:33.478Z,4.40
2023-11-12T06:45:01.118Z,4.40
2023-11-12T06:47:28.704Z,4.40
2023-11-12T06:49:57.928Z,4.40
2023-11-12T06:52:25.814Z,4.40
2023-11-12T06:54:53.535Z,4.50
2023-11-12T06:57:21.684Z,4.50
2023-11-12T06:59:49.448Z,4.50
2023-11-12T07:02:17.365Z,4.50
2023-11-12T07:04:45.315Z,4.50
2023-11-12T07:07:16.894Z,4.60
2023-11-12T07:09:47.520Z,4.60
2023-11-12T07:12:16.665Z,4.60
2023-11-12T07:14:44.624Z,4.60
2023-11-12T07:17:12.540Z,4.60
2023-11-12T07:19:45.490Z,4.70
2023-11-12T07:22:13.425Z,4.70
2023-11-12T07:24:41.227Z,4.70
2023-11-12T07:27:09.086Z,4.70
2023-11-12T07:29:36.856Z,4.70
2023-11-12T07:32:07.675Z,4.70
2023-11-12T07:34:35.301Z,4.70
2023-11-12T07:37:06.371Z,4.80
2023-11-12T07:39:34.393Z,4.80
2023-11-12T07:42:02.605Z,4.80
2023-11-12T07:44:32.223Z,4.80
2023-11-12T07:46:59.941Z,4.80
2023-11-12T07:49:27.838Z,4.80
2023-11-12T07:51:55.639Z,4.80
2023-11-12T07:54:24.307Z,4.80
2023-11-12T07:56:52.129Z,4.90
2023-11-12T07:59:19.961Z,4.90
2023-11-12T08:01:49.468Z,4.90
2023-11-12T08:04:18.611Z,4.90
2023-11-12T08:06:50.714Z,4.90
2023-11-12T08:09:18.714Z,4.90
2023-11-12T08:11:46.700Z,4.90
2023-11-12T08:14:15.201Z,4.90
2023-11-12T08:16:43.684Z,5.00
2023-11-12T08:19:12.097Z,5.00
2023-11-12T08:21:40.240Z,5.00
2023-11-12T08:24:08.725Z,5.00
2023-11-12T08:26:40.124Z,5.00
2023-11-12T08:29:08.658Z,5.00
2023-11-12T08:31:37.507Z,5.10
2023-11-12T08:34:07.030Z,5.10
2023-11-12T08:36:34.937Z,5.10
2023-11-12T08:39:06.045Z,5.10
2023-11-12T08:41:34.368Z,5.10
2023-11-12T08:44:02.378Z,5.10
2023-11-12T08:46:30.412Z,5.10
2023-11-12T08:48:58.347Z,5.10
2023-11-12T08:51:26.303Z,5.10
2023-11-12T08:53:54.274Z,5.10
2023-11-12T08:56:22.050Z,5.00
2023-11-12T08:58:49.887Z,5.00
2023-11-12T09:01:17.548Z,5.00
2023-11-12T09:03:46.018Z,5.00
2023-11-12T09:06:13.810Z,5.00
2023-11-12T09:08:41.602Z,5.00
2023-11-12T09:11:14.183Z,5.00
2023-11-12T09:13:43.691Z,4.90
2023-11-12T09:16:12.264Z,4.90
2023-11-12T09:18:40.980Z,4.80
2023-11-12T09:21:08.788Z,4.80
2023-11-12T09:23:36.738Z,4.80
2023-11-12T09:26:05.672Z,4.80
2023-11-12T09:28:33.361Z,4.80
2023-11-12T09:31:01.519Z,4.80
2023-11-12T09:33:29.451Z,4.80
2023-11-12T09:35:57.508Z,4.70
2023-11-12T09:38:25.521Z,4.70
2023-11-12T09:40:54.791Z,4.70
2023-11-12T09:43:29.527Z,4.70
2023-11-12T09:45:58.529Z,4.70
2023-11-12T09:48:36.663Z,4.70
2023-11-12T09:51:09.231Z,4.70
2023-11-12T09:53:43.609Z,4.70
2023-11-12T09:56:11.662Z,4.80
2023-11-12T09:58:46.567Z,4.70
2023-11-12T10:01:15.260Z,4.80
2023-11-12T10:03:49.041Z,4.80
2023-11-12T10:06:18.222Z,4.80
2023-11-12T10:08:46.445Z,4.80
2023-11-12T10:11:19.120Z,4.80
2023-11-12T10:13:47.912Z,4.80
2023-11-12T10:16:32.117Z,4.80
2023-11-12T10:19:15.475Z,4.90
2023-11-12T10:21:57.876Z,4.80
2023-11-12T10:24:30.806Z,4.90
2023-11-12T10:27:02.614Z,4.80
2023-11-12T10:29:30.526Z,4.80
2023-11-12T10:31:59.048Z,4.80
2023-11-12T10:34:28.877Z,4.80
2023-11-12T10:37:11.419Z,4.90
2023-11-12T10:39:43.002Z,4.90
2023-11-12T10:42:20.989Z,4.90
2023-11-12T10:44:51.727Z,4.90
2023-11-12T10:47:22.235Z,5.00
2023-11-12T10:49:51.493Z,5.00
2023-11-12T10:52:20.222Z,5.00
2023-11-12T10:54:48.593Z,5.10
2023-11-12T10:57:20.215Z,5.10
2023-11-12T10:59:50.398Z,5.10
2023-11-12T11:02:19.981Z,5.20
2023-11-12T11:04:48.512Z,5.30
2023-11-12T11:07:17.591Z,5.30
2023-11-12T11:09:45.782Z,5.30
2023-11-12T11:12:15.110Z,5.40
2023-11-12T11:14:42.957Z,5.50
2023-11-12T11:17:42.054Z,5.60
2023-11-12T11:20:13.406Z,5.80
2023-11-12T11:22:42.908Z,5.90
2023-11-12T11:25:31.133Z,6.00
2023-11-12T11:28:35.678Z,6.10
2023-11-12T11:31:12.448Z,6.30
2023-11-12T11:33:49.485Z,6.30
2023-11-12T11:36:19.956Z,6.40
2023-11-12T11:39:24.920Z,6.50
2023-11-12T11:41:54.922Z,6.50
2023-11-12T11:44:48.012Z,6.50
2023-11-12T11:47:24.802Z,6.40
2023-11-12T11:49:59.100Z,6.40
2023-11-12T11:52:30.984Z,6.40
2023-11-12T11:55:01.552Z,6.40
2023-11-12T11:57:33.212Z,6.40
2023-11-12T12:00:02.612Z,6.30
2023-11-12T12:02:43.165Z,6.30
2023-11-12T12:05:14.179Z,6.30
2023-11-12T12:07:46.121Z,6.30
2023-11-12T12:10:27.950Z,6.30
2023-11-12T12:12:56.486Z,6.20
2023-11-12T12:15:24.662Z,6.20
2023-11-12T12:17:52.648Z,6.30
2023-11-12T12:20:21.191Z,6.20
2023-11-12T12:22:49.273Z,6.30
2023-11-12T12:25:18.016Z,6.30
2023-11-12T12:27:53.933Z,6.30
2023-11-12T12:30:21.973Z,6.30
2023-11-12T12:32:50.698Z,6.30
2023-11-12T12:35:23.883Z,6.30
2023-11-12T12:37:51.774Z,6.30
2023-11-12T12:40:29.337Z,6.30
2023-11-12T12:42:59.006Z,6.40
2023-11-12T12:45:27.231Z,6.40
2023-11-12T12:47:57.016Z,6.40
2023-11-12T12:50:33.719Z,6.40
2023-11-12T12:53:16.280Z,6.50
2023-11-12T12:55:45.842Z,6.40
2023-11-12T12:58:14.129Z,6.50
2023-11-12T13:00:44.376Z,6.50
2023-11-12T13:03:28.330Z,6.50
2023-11-12T13:05:57.961Z,6.50
2023-11-12T13:08:25.857Z,6.50
2023-11-12T13:10:55.566Z,6.50
2023-11-12T13:13:25.429Z,6.50
2023-11-12T13:15:53.311Z,6.50
2023-11-12T13:18:23.678Z,6.40
2023-11-12T13:20:52.780Z,6.40
2023-11-12T13:23:20.723Z,6.50
2023-11-12T13:25:51.114Z,6.60
2023-11-12T13:28:19.467Z,6.60
2023-11-12T13:30:48.700Z,6.70
2023-11-12T13:33:17.462Z,6.80
2023-11-12T13:35:46.402Z,6.80
2023-11-12T13:38:14.587Z,6.90
2023-11-12T13:40:42.435Z,6.90
2023-11-12T13:43:10.399Z,6.90
2023-11-12T13:45:39.314Z,6.80
2023-11-12T13:48:09.569Z,6.80
2023-11-12T13:50:37.761Z,6.80
2023-11-12T13:53:10.829Z,6.90
2023-11-12T13:55:42.467Z,6.90
2023-11-12T13:58:14.896Z,6.90
2023-11-12T14:00:43.899Z,6.90
2023-11-12T14:03:12.926Z,6.90
2023-11-12T14:05:41.125Z,6.80
2023-11-12T14:08:12.265Z,6.80
2023-11-12T14:10:41.222Z,6.80
2023-11-12T14:13:10.592Z,6.80
2023-11-12T14:15:40.261Z,6.80
2023-11-12T14:18:08.899Z,6.80
2023-11-12T14:20:36.842Z,6.80
2023-11-12T14:23:04.618Z,6.80
2023-11-12T14:25:32.386Z,6.80
2023-11-12T14:28:04.269Z,6.80
2023-11-12T14:30:38.224Z,6.80
2023-11-12T14:33:08.509Z,6.80
2023-11-12T14:35:36.397Z,6.80
2023-11-12T14:38:06.809Z,6.90
2023-11-12T14:40:34.531Z,6.90
2023-11-12T14:43:08.032Z,6.90
2023-11-12T14:45:39.075Z,6.90
2023-11-12T14:48:08.745Z,6.90
2023-11-12T14:50:37.985Z,6.90
2023-11-12T14:53:06.525Z,6.90
2023-11-12T14:55:34.477Z,6.90
2023-11-12T14:58:02.903Z,6.90
2023-11-12T15:00:31.455Z,6.90
2023-11-12T15:03:00.736Z,6.90
2023-11-12T15:05:29.509Z,6.90
2023-11-12T15:07:57.445Z,6.90
2023-11-12T15:10:25.156Z,6.90
2023-11-12T15:12:55.675Z,6.90
2023-11-12T15:15:23.264Z,6.90
2023-11-12T15:17:53.430Z,6.90
2023-11-12T15:20:21.794Z,6.90
2023-11-12T15:22:51.658Z,6.90
2023-11-12T15:25:20.714Z,6.90
2023-11-12T15:27:52.381Z,6.90
2023-11-12T15:30:21.659Z,6.90
2023-11-12T15:32:50.185Z,7.00
2023-11-12T15:35:19.635Z,7.00
2023-11-12T15:37:47.414Z,7.00
2023-11-12T15:40:19.494Z,7.00
2023-11-12T15:42:48.990Z,7.00
2023-11-12T15:45:17.558Z,7.00
2023-11-12T15:47:46.427Z,7.10
2023-11-12T15:50:14.445Z,7.10
2023-11-12T15:52:42.243Z,7.10
2023-11-12T15:55:10.460Z,7.10
2023-11-12T15:57:38.491Z,7.10
2023-11-12T16:00:18.798Z,7.10
2023-11-12T16:02:47.893Z,7.10
2023-11-12T16:05:15.707Z,7.10
2023-11-12T16:07:44.076Z,7.10
2023-11-12T16:10:12.564Z,7.10
2023-11-12T16:12:41.193Z,7.10
2023-11-12T16:15:13.896Z,7.10
2023-11-12T16:17:44.811Z,7.10
2023-11-12T16:20:13.913Z,7.10
2023-11-12T16:22:42.507Z,7.10
2023-11-12T16:25:10.699Z,7.10
2023-11-12T16:27:38.889Z,7.10
2023-11-12T16:30:12.121Z,7.20
2023-11-12T16:32:39.685Z,7.20
2023-11-12T16:35:07.667Z,7.20
2023-11-12T16:37:35.332Z,7.20
2023-11-12T16:40:04.516Z,7.10
2023-11-12T16:42:32.135Z,7.20
2023-11-12T16:44:59.625Z,7.20
2023-11-12T16:47:27.370Z,7.20
2023-11-12T16:49:55.298Z,7.20
2023-11-12T16:52:23.237Z,7.20
2023-11-12T16:54:52.268Z,7.30
2023-11-12T16:57:19.781Z,7.30
2023-11-12T16:59:47.326Z,7.30
2023-11-12T17:02:15.360Z,7.30
2023-11-12T17:04:43.206Z,7.30
2023-11-12T17:07:12.465Z,7.30
2023-11-12T17:09:41.951Z,7.30
2023-11-12T17:12:13.856Z,7.40
2023-11-12T17:14:41.878Z,7.40
2023-11-12T17:17:09.874Z,7.40
2023-11-12T17:19:37.366Z,7.40
2023-11-12T17:22:04.841Z,7.40
2023-11-12T17:24:33.235Z,7.40
2023-11-12T17:27:01.360Z,7.40
2023-11-12T17:29:29.428Z,7.40
2023-11-12T17:31:56.934Z,7.40
2023-11-12T17:34:25.199Z,7.50
2023-11-12T17:36:52.996Z,7.50
2023-11-12T17:39:24.402Z,7.50
2023-11-12T17:41:53.879Z,7.50
2023-11-12T17:44:22.679Z,7.50
2023-11-12T17:46:50.491Z,7.50
2023-11-12T17:49:18.199Z,7.50
2023-11-12T17:51:47.537Z,7.60
2023-11-12T17:54:16.966Z,7.60
2023-11-12T17:56:47.247Z,7.60
2023-11-12T17:59:14.723Z,7.50
2023-11-12T18:01:42.636Z,7.60
2023-11-12T18:04:10.334Z,7.60
2023-11-12T18:06:39.097Z,7.60
2023-11-12T18:09:06.845Z,7.60
2023-11-12T18:11:35.419Z,7.60
2023-11-12T18:14:02.947Z,7.70
2023-11-12T18:16:30.578Z,7.70
2023-11-12T18:18:58.874Z,7.70
2023-11-12T18:21:29.179Z,7.70
2023-11-12T18:23:56.614Z,7.70
2023-11-12T18:26:25.052Z,7.80
2023-11-12T18:28:53.370Z,7.80
2023-11-12T18:31:24.845Z,7.80
2023-11-12T18:33:52.589Z,7.80
2023-11-12T18:36:20.229Z,7.80
2023-11-12T18:38:47.834Z,7.80
2023-11-12T18:41:15.881Z,7.80
2023-11-12T18:43:45.516Z,7.80
2023-11-12T18:46:13.170Z,7.80
2023-11-12T18:48:43.734Z,7.90
2023-11-12T18:51:11.359Z,7.80
2023-11-12T18:53:38.886Z,7.90
2023-11-12T18:56:08.471Z,7.90
2023-11-12T18:58:36.092Z,7.90
2023-11-12T19:01:04.163Z,7.90
2023-11-12T19:03:32.140Z,7.90
2023-11-12T19:05:59.852Z,7.90
2023-11-12T19:08:27.344Z,7.90
2023-11-12T19:10:55.435Z,7.90
2023-11-12T19:13:23.043Z,8.00
2023-11-12T19:15:52.222Z,8.00
2023-11-12T19:18:21.335Z,8.00
2023-11-12T19:20:49.185Z,8.00
2023-11-12T19:23:16.658Z,8.00
2023-11-12T19:25:44.480Z,8.00
2023-11-12T19:28:12.229Z,8.10
2023-11-12T19:30:39.920Z,8.10
2023-11-12T19:33:08.436Z,8.10
2023-11-12T19:35:37.048Z,8.20
2023-11-12T19:38:04.683Z,8.20
2023-11-12T19:40:32.584Z,8.20
2023-11-12T19:43:00.285Z,8.20
2023-11-12T19:45:27.780Z,8.20
2023-11-12T19:47:55.779Z,8.20
2023-11-12T19:50:24.993Z,8.20
2023-11-12T19:52:52.569Z,8.20
2023-11-12T19:55:20.946Z,8.30
2023-11-12T19:57:53.873Z,8.30
2023-11-12T20:00:22.467Z,8.20
2023-11-12T20:02:51.608Z,8.20
2023-11-12T20:05:19.888Z,8.20
2023-11-12T20:07:47.709Z,8.20
2023-11-12T20:10:15.554Z,8.30
2023-11-12T20:12:43.080Z,8.30
2023-11-12T20:15:11.281Z,8.30
2023-11-12T20:17:38.921Z,8.30
2023-11-12T20:20:06.888Z,8.30
2023-11-12T20:22:34.535Z,8.30
2023-11-12T20:25:02.477Z,8.30
2023-11-12T20:27:32.292Z,8.30
2023-11-12T20:30:00.098Z,8.30
2023-11-12T20:32:29.290Z,8.20
2023-11-12T20:34:57.863Z,8.20
2023-11-12T20:37:26.277Z,8.20
2023-11-12T20:39:54.155Z,8.20
2023-11-12T20:42:21.717Z,8.20
2023-11-12T20:44:50.183Z,8.20
2023-11-12T20:47:17.716Z,8.20
2023-11-12T20:49:45.278Z,8.20
2023-11-12T20:52:13.313Z,8.10
2023-11-12T20:54:41.064Z,8.10
2023-11-12T20:57:08.757Z,8.10
2023-11-12T20:59:37.941Z,8.10
2023-11-12T21:02:14.380Z,8.00
2023-11-12T21:04:49.940Z,8.10
2023-11-12T21:07:21.054Z,8.10
2023-11-12T21:09:50.588Z,8.00
2023-11-12T21:12:18.809Z,8.10
2023-11-12T21:14:48.298Z,8.10
2023-11-12T21:17:19.503Z,8.10
2023-11-12T21:19:47.626Z,8.10
2023-11-12T21:22:15.220Z,8.10
2023-11-12T21:24:44.418Z,8.10
2023-11-12T21:27:13.699Z,8.10
2023-11-12T21:29:41.896Z,8.10
2023-11-12T21:32:10.458Z,8.10
2023-11-12T21:34:38.217Z,8.10
2023-11-12T21:37:09.164Z,8.00
2023-11-12T21:39:37.215Z,8.00
2023-11-12T21:42:08.368Z,8.00
2023-11-12T21:44:36.617Z,8.00
2023-11-12T21:47:04.584Z,8.00
2023-11-12T21:49:32.950Z,8.00
2023-11-12T21:52:00.835Z,8.00
2023-11-12T21:54:28.272Z,8.00
2023-11-12T21:56:55.865Z,8.00
2023-11-12T21:59:23.393Z,8.00
2023-11-12T22:01:52.531Z,8.00
2023-11-12T22:04:21.457Z,8.00
2023-11-12T22:06:49.404Z,8.10
2023-11-12T22:09:18.092Z,8.10
2023-11-12T22:11:45.952Z,8.00
2023-11-12T22:14:14.016Z,8.10
2023-11-12T22:16:45.981Z,8.00
2023-11-12T22:19:14.298Z,8.00
2023-11-12T22:21:44.960Z,8.00
2023-11-12T22:24:12.604Z,8.00
2023-11-12T22:26:41.000Z,7.90
2023-11-12T22:29:08.903Z,7.90
2023-11-12T22:31:36.753Z,7.90
2023-11-12T22:34:05.071Z,7.90
2023-11-12T22:36:32.768Z,8.00
2023-11-12T22:39:00.679Z,7.90
2023-11-12T22:41:28.508Z,7.90
2023-11-12T22:43:59.396Z,7.90
2023-11-12T22:46:26.859Z,7.90
2023-11-12T22:48:54.561Z,7.90
2023-11-12T22:51:22.167Z,7.80
2023-11-12T22:53:50.497Z,7.90
2023-11-12T22:56:18.124Z,7.80
2023-11-12T22:58:47.283Z,7.80
2023-11-12T23:01:16.838Z,7.80
2023-11-12T23:03:47.996Z,7.80
2023-11-12T23:06:17.790Z,7.80
2023-11-12T23:08:45.341Z,7.80
2023-11-12T23:11:14.300Z,7.80
2023-11-12T23:13:43.462Z,7.80
2023-11-12T23:16:11.359Z,7.70
2023-11-12T23:18:38.992Z,7.70
2023-11-12T23:21:09.802Z,7.70
2023-11-12T23:23:38.245Z,7.70
2023-11-12T23:26:06.825Z,7.80
2023-11-12T23:28:36.346Z,7.80
2023-11-12T23:31:04.327Z,7.70
2023-11-12T23:33:31.970Z,7.70
2023-11-12T23:35:59.906Z,7.70
2023-11-12T23:38:27.396Z,7.70
2023-11-12T23:40:55.907Z,7.70
2023-11-12T23:43:23.422Z,7.60
2023-11-12T23:45:51.689Z,7.60
2023-11-12T23:48:19.271Z,7.60
2023-11-12T23:50:46.799Z,7.60
2023-11-12T23:53:14.442Z,7.60
2023-11-12T23:55:42.572Z,7.60
2023-11-12T23:58:10.957Z,7.60
